createdAt,value
2019-05-01T00:00:23.279Z,7.00
2019-05-01T00:03:05.760Z,6.65
2019-05-01T00:05:36.239Z,6.15
2019-05-01T00:08:05.742Z,6.42
2019-05-01T00:10:34.472Z,6.70
2019-05-01T00:13:03.597Z,6.80
2019-05-01T00:15:34.086Z,6.53
2019-05-01T00:18:02.811Z,6.05
2019-05-01T00:20:31.631Z,7.30
2019-05-01T00:23:00.361Z,6.90
2019-05-01T00:25:29.104Z,7.10
2019-05-01T00:27:57.894Z,6.87
2019-05-01T00:30:29.944Z,6.47
2019-05-01T00:32:58.786Z,6.67
2019-05-01T00:35:27.530Z,7.03
2019-05-01T00:37:56.249Z,6.25
2019-05-01T00:40:24.991Z,6.67
2019-05-01T00:42:53.731Z,6.95
2019-05-01T00:45:22.467Z,7.43
2019-05-01T00:47:51.183Z,7.10
2019-05-01T00:50:19.929Z,7.28
2019-05-01T00:52:48.656Z,6.67
2019-05-01T00:55:35.021Z,7.15
2019-05-01T00:58:05.422Z,6.80
2019-05-01T01:00:42.911Z,7.28
2019-05-01T01:03:06.277Z,7.33
2019-05-01T01:05:35.008Z,7.30
2019-05-01T01:08:03.783Z,6.23
2019-05-01T01:10:32.597Z,6.60
2019-05-01T01:13:01.307Z,7.13
2019-05-01T01:15:30.029Z,7.22
2019-05-01T01:17:58.838Z,7.40
2019-05-01T01:20:27.563Z,7.73
2019-05-01T01:22:56.283Z,7.28
2019-05-01T01:25:25.019Z,7.37
2019-05-01T01:27:53.743Z,8.10
2019-05-01T01:30:22.562Z,6.50
2019-05-01T01:32:51.299Z,7.37
2019-05-01T01:35:20.426Z,7.10
2019-05-01T01:37:49.262Z,6.97
2019-05-01T01:40:17.975Z,7.03
2019-05-01T01:42:48.546Z,7.33
2019-05-01T01:45:18.914Z,6.80
2019-05-01T01:48:05.842Z,6.95
2019-05-01T01:50:35.341Z,7.05
2019-05-01T01:53:04.385Z,6.17
2019-05-01T01:55:33.425Z,7.47
2019-05-01T01:58:02.262Z,7.42
2019-05-01T02:00:32.633Z,7.23
2019-05-01T02:03:03.022Z,7.20
2019-05-01T02:05:33.422Z,6.70
2019-05-01T02:08:02.253Z,7.12
2019-05-01T02:10:42.345Z,7.97
2019-05-01T02:13:01.533Z,8.55
2019-05-01T02:15:30.326Z,7.80
2019-05-01T02:17:59.051Z,8.55
2019-05-01T02:20:27.792Z,9.20
2019-05-01T02:22:56.513Z,8.35
2019-05-01T02:25:25.433Z,8.43
2019-05-01T02:28:12.665Z,8.25
2019-05-01T02:30:43.245Z,7.47
2019-05-01T02:33:12.982Z,7.53
2019-05-01T02:38:12.099Z,7.85
2019-05-01T02:40:46.370Z,9.00
2019-05-01T02:43:18.393Z,8.68
2019-05-01T02:45:50.065Z,8.13
2019-05-01T02:48:21.729Z,7.83
2019-05-01T02:50:53.384Z,7.95
2019-05-01T02:53:24.980Z,8.55
2019-05-01T02:56:15.604Z,8.10
2019-05-01T02:58:47.383Z,7.62
2019-05-01T03:01:16.184Z,7.87
2019-05-01T03:03:45.103Z,8.20
2019-05-01T03:06:14.362Z,7.87
2019-05-01T03:08:44.079Z,7.72
2019-05-01T03:13:43.439Z,8.48
2019-05-01T03:16:12.389Z,8.23
2019-05-01T03:18:42.749Z,7.53
2019-05-01T03:21:28.033Z,8.18
2019-05-01T03:24:01.654Z,6.92
2019-05-01T03:26:30.915Z,7.75
2019-05-01T03:28:59.625Z,8.00
2019-05-01T03:31:28.379Z,7.87
2019-05-01T03:33:57.929Z,6.60
2019-05-01T03:36:26.859Z,7.12
2019-05-01T03:38:55.621Z,7.25
2019-05-01T03:41:24.350Z,8.30
2019-05-01T03:43:53.299Z,8.13
2019-05-01T03:46:22.126Z,7.50
2019-05-01T03:48:50.967Z,8.37
2019-05-01T03:51:19.704Z,7.40
2019-05-01T03:53:48.428Z,8.27
2019-05-01T03:56:17.171Z,7.53
2019-05-01T03:58:45.975Z,8.00
2019-05-01T04:01:28.956Z,9.97
2019-05-01T04:03:59.638Z,9.03
2019-05-01T04:06:28.482Z,8.10
2019-05-01T04:08:58.220Z,8.27
2019-05-01T04:13:55.118Z,8.50
2019-05-01T04:16:23.928Z,10.08
2019-05-01T04:18:52.944Z,8.20
2019-05-01T04:21:23.914Z,7.12
2019-05-01T04:23:53.119Z,7.85
2019-05-01T04:26:22.185Z,7.58
2019-05-01T04:29:01.795Z,6.45
2019-05-01T04:31:40.918Z,7.17
2019-05-01T04:34:28.058Z,7.20
2019-05-01T04:37:01.970Z,7.25
2019-05-01T04:39:30.969Z,7.60
2019-05-01T04:41:59.712Z,8.73
2019-05-01T04:44:28.521Z,8.67
2019-05-01T04:46:58.369Z,9.20
2019-05-01T04:49:27.511Z,8.90
2019-05-01T04:51:57.187Z,8.30
2019-05-01T04:54:25.965Z,10.48
2019-05-01T04:56:54.923Z,8.13
2019-05-01T04:59:23.681Z,8.08
2019-05-01T05:01:57.120Z,7.63
2019-05-01T05:04:25.339Z,8.20
2019-05-01T05:06:54.767Z,7.85
2019-05-01T05:09:38.371Z,8.15
2019-05-01T05:12:12.143Z,8.75
2019-05-01T05:14:45.260Z,7.55
2019-05-01T05:17:18.508Z,7.78
2019-05-01T05:19:47.638Z,7.85
2019-05-01T05:22:16.903Z,8.33
2019-05-01T05:24:45.883Z,8.10
2019-05-01T05:27:16.088Z,8.50
2019-05-01T05:29:45.426Z,7.95
2019-05-01T05:32:15.670Z,8.25
2019-05-01T05:34:47.423Z,8.20
2019-05-01T05:37:19.593Z,8.10
2019-05-01T05:39:49.030Z,7.97
2019-05-01T05:42:18.267Z,8.63
2019-05-01T05:44:48.462Z,7.92
2019-05-01T05:47:17.709Z,13.25
2019-05-01T05:49:46.857Z,8.98
2019-05-01T05:52:21.234Z,8.30
2019-05-01T05:55:10.203Z,8.20
2019-05-01T05:57:57.587Z,8.53
2019-05-01T06:00:31.155Z,7.90
2019-05-01T06:03:30.730Z,8.80
2019-05-01T06:05:56.276Z,8.80
2019-05-01T06:08:28.879Z,10.15
2019-05-01T06:11:18.732Z,11.00
2019-05-01T06:13:57.183Z,11.33
2019-05-01T06:16:29.178Z,10.72
2019-05-01T06:19:16.298Z,10.70
2019-05-01T06:21:47.548Z,11.20
2019-05-01T06:24:24.822Z,12.23
2019-05-01T06:26:53.647Z,10.45
2019-05-01T06:29:22.386Z,12.18
2019-05-01T06:31:54.036Z,12.80
2019-05-01T06:34:23.810Z,11.33
2019-05-01T06:36:51.947Z,11.40
2019-05-01T06:39:20.749Z,11.57
2019-05-01T06:41:49.787Z,11.07
2019-05-01T06:44:20.158Z,8.98
2019-05-01T06:46:58.231Z,8.98
2019-05-01T06:49:38.994Z,9.23
2019-05-01T06:52:09.195Z,9.13
2019-05-01T06:54:38.356Z,9.00
2019-05-01T06:57:07.904Z,7.90
2019-05-01T06:59:39.289Z,7.42
2019-05-01T07:02:11.210Z,6.83
2019-05-01T07:04:42.173Z,6.72
2019-05-01T07:07:24.791Z,6.53
2019-05-01T07:09:44.189Z,6.70
2019-05-01T07:12:15.526Z,5.97
2019-05-01T07:14:47.104Z,6.62
2019-05-01T07:17:15.249Z,6.05
2019-05-01T07:19:58.014Z,5.50
2019-05-01T07:22:26.895Z,6.28
2019-05-01T07:24:58.962Z,5.95
2019-05-01T07:27:26.466Z,5.67
2019-05-01T07:29:57.031Z,5.13
2019-05-01T07:32:25.863Z,5.85
2019-05-01T07:34:56.802Z,6.12
2019-05-01T07:37:25.833Z,5.30
2019-05-01T07:39:55.783Z,5.37
2019-05-01T07:42:28.963Z,6.23
2019-05-01T07:45:03.885Z,5.45
2019-05-01T07:47:40.334Z,5.17
2019-05-01T07:50:11.347Z,5.22
2019-05-01T07:52:40.951Z,5.75
2019-05-01T07:57:41.298Z,5.90
2019-05-01T08:00:12.836Z,4.70
2019-05-01T08:02:41.562Z,4.92
2019-05-01T08:05:11.731Z,5.97
2019-05-01T08:07:40.670Z,5.60
2019-05-01T08:10:09.794Z,5.33
2019-05-01T08:12:38.522Z,5.08
2019-05-01T08:15:07.319Z,6.83
2019-05-01T08:17:37.676Z,5.87
2019-05-01T08:20:14.442Z,6.40
2019-05-01T08:22:40.135Z,4.97
2019-05-01T08:25:09.031Z,5.23
2019-05-01T08:27:56.229Z,6.65
2019-05-01T08:30:26.737Z,7.00
2019-05-01T08:33:14.568Z,10.10
2019-05-01T08:35:44.339Z,11.38
2019-05-01T08:38:13.087Z,11.20
2019-05-01T08:40:41.828Z,9.63
2019-05-01T08:43:13.650Z,9.00
2019-05-01T08:45:59.225Z,8.40
2019-05-01T08:48:30.868Z,7.10
2019-05-01T08:51:00.425Z,7.53
2019-05-01T08:53:29.351Z,7.22
2019-05-01T08:55:58.115Z,7.22
2019-05-01T08:58:26.956Z,5.75
2019-05-01T09:00:55.765Z,5.25
2019-05-01T09:03:24.562Z,6.42
2019-05-01T09:05:57.516Z,5.45
2019-05-01T09:08:26.974Z,5.58
2019-05-01T09:10:54.759Z,6.47
2019-05-01T09:13:24.899Z,6.83
2019-05-01T09:15:53.857Z,7.28
2019-05-01T09:18:22.593Z,6.50
2019-05-01T09:20:52.988Z,6.37
2019-05-01T09:23:21.814Z,7.50
2019-05-01T09:26:14.818Z,7.25
2019-05-01T09:28:41.001Z,6.17
2019-05-01T09:31:11.429Z,6.58
2019-05-01T09:33:40.198Z,5.65
2019-05-01T09:36:09.086Z,6.10
2019-05-01T09:38:38.000Z,6.08
2019-05-01T09:41:06.730Z,5.17
2019-05-01T09:43:35.873Z,5.15
2019-05-01T09:46:05.722Z,5.90
2019-05-01T09:48:34.522Z,5.40
2019-05-01T09:51:07.653Z,5.78
2019-05-01T09:53:44.194Z,6.62
2019-05-01T09:56:14.555Z,6.47
2019-05-01T09:58:43.285Z,5.30
2019-05-01T10:01:12.300Z,5.33
2019-05-01T10:03:41.027Z,4.95
2019-05-01T10:06:12.769Z,6.28
2019-05-01T10:08:41.867Z,6.10
2019-05-01T10:11:10.904Z,5.20
2019-05-01T10:13:39.646Z,5.92
2019-05-01T10:16:08.451Z,6.20
2019-05-01T10:18:37.217Z,5.62
2019-05-01T10:21:06.017Z,5.37
2019-05-01T10:23:34.750Z,5.70
2019-05-01T10:26:05.130Z,6.75
2019-05-01T10:28:50.171Z,6.60
2019-05-01T10:31:36.013Z,5.70
2019-05-01T10:34:15.318Z,5.90
2019-05-01T10:39:19.705Z,5.22
2019-05-01T10:41:48.180Z,5.00
2019-05-01T10:44:16.959Z,5.10
2019-05-01T10:46:45.685Z,4.90
2019-05-01T10:49:14.503Z,4.03
2019-05-01T10:51:43.998Z,4.33
2019-05-01T10:54:12.735Z,3.90
2019-05-01T10:56:41.491Z,6.65
2019-05-01T10:59:10.284Z,4.42
2019-05-01T11:01:52.137Z,4.70
2019-05-01T11:04:20.823Z,5.17
2019-05-01T11:06:49.622Z,4.58
2019-05-01T11:09:18.546Z,4.55
2019-05-01T11:11:47.471Z,4.25
2019-05-01T11:14:16.197Z,4.50
2019-05-01T11:16:44.998Z,4.42
2019-05-01T11:19:13.778Z,5.42
2019-05-01T11:21:42.565Z,4.95
2019-05-01T11:24:11.322Z,4.62
2019-05-01T11:26:40.006Z,4.55
2019-05-01T11:29:08.833Z,4.87
2019-05-01T11:31:47.917Z,5.05
2019-05-01T11:34:34.528Z,5.30
2019-05-01T11:37:04.927Z,5.10
2019-05-01T11:39:42.134Z,4.78
2019-05-01T11:42:15.216Z,5.28
2019-05-01T11:44:43.930Z,5.15
2019-05-01T11:47:12.666Z,5.47
2019-05-01T11:49:41.401Z,4.80
2019-05-01T11:52:10.154Z,5.40
2019-05-01T11:54:38.889Z,5.22
2019-05-01T11:57:07.731Z,6.08
2019-05-01T12:02:04.834Z,6.13
2019-05-01T12:04:33.576Z,5.30
2019-05-01T12:07:02.318Z,5.00
2019-05-01T12:12:18.877Z,5.22
2019-05-01T12:17:17.120Z,5.10
2019-05-01T12:19:45.831Z,5.60
2019-05-01T12:24:42.439Z,5.42
2019-05-01T12:29:39.196Z,5.70
2019-05-01T12:34:35.865Z,5.58
2019-05-01T12:37:22.610Z,5.70
2019-05-01T12:39:51.419Z,6.20
2019-05-01T12:42:21.794Z,5.78
2019-05-01T12:44:50.542Z,6.30
2019-05-01T12:47:20.903Z,5.33
2019-05-01T12:49:51.302Z,5.53
2019-05-01T12:52:38.115Z,5.45
2019-05-01T12:55:08.993Z,5.90
2019-05-01T12:57:37.788Z,5.42
2019-05-01T13:00:10.024Z,5.05
2019-05-01T13:02:38.781Z,5.58
2019-05-01T13:05:07.871Z,5.45
2019-05-01T13:07:36.590Z,5.50
2019-05-01T13:10:06.333Z,5.30
2019-05-01T13:12:35.126Z,4.95
2019-05-01T13:15:05.762Z,5.70
2019-05-01T13:17:34.565Z,5.55
2019-05-01T13:20:03.804Z,5.33
2019-05-01T13:22:32.527Z,5.40
2019-05-01T13:25:01.260Z,5.28
2019-05-01T13:27:31.637Z,4.97
2019-05-01T13:30:01.999Z,6.05
2019-05-01T13:32:44.342Z,5.60
2019-05-01T13:35:13.122Z,5.40
2019-05-01T13:37:41.869Z,5.00
2019-05-01T13:40:11.068Z,6.22
2019-05-01T13:42:39.761Z,5.47
2019-05-01T13:45:10.222Z,5.42
2019-05-01T13:47:39.003Z,5.00
2019-05-01T13:50:08.490Z,5.10
2019-05-01T13:52:37.312Z,5.30
2019-05-01T13:55:07.328Z,5.47
2019-05-01T13:57:36.176Z,5.30
2019-05-01T14:02:36.453Z,5.60
2019-05-01T14:07:33.835Z,5.40
2019-05-01T14:10:02.599Z,5.45
2019-05-01T14:12:31.422Z,5.30
2019-05-01T14:15:00.199Z,6.20
2019-05-01T14:17:28.994Z,6.25
2019-05-01T14:22:31.614Z,5.60
2019-05-01T14:25:04.801Z,5.20
2019-05-01T14:27:33.588Z,5.37
2019-05-01T14:30:02.419Z,6.10
2019-05-01T14:32:31.146Z,6.22
2019-05-01T14:34:59.965Z,6.28
2019-05-01T14:37:30.040Z,5.87
2019-05-01T14:39:58.984Z,5.62
2019-05-01T14:42:27.783Z,6.33
2019-05-01T14:44:56.590Z,5.58
2019-05-01T14:47:25.381Z,6.22
2019-05-01T14:49:54.151Z,6.15
2019-05-01T14:52:22.900Z,5.65
2019-05-01T14:54:53.278Z,5.15
2019-05-01T14:57:22.092Z,5.97
2019-05-01T14:59:54.879Z,6.17
2019-05-01T15:02:23.615Z,5.97
2019-05-01T15:04:52.418Z,5.55
2019-05-01T15:07:21.145Z,6.17
2019-05-01T15:09:49.881Z,5.90
2019-05-01T15:12:18.620Z,5.60
2019-05-01T15:14:54.731Z,6.05
2019-05-01T15:17:25.260Z,6.85
2019-05-01T15:20:01.879Z,5.22
2019-05-01T15:22:30.594Z,6.35
2019-05-01T15:25:02.095Z,6.33
2019-05-01T15:27:30.924Z,5.95
2019-05-01T15:29:59.709Z,6.25
2019-05-01T15:32:28.440Z,6.67
2019-05-01T15:34:57.189Z,6.58
2019-05-01T15:37:25.976Z,5.62
2019-05-01T15:39:56.366Z,6.12
2019-05-01T15:42:32.531Z,5.92
2019-05-01T15:45:01.361Z,6.05
2019-05-01T15:47:30.135Z,5.92
2019-05-01T15:49:58.867Z,6.33
2019-05-01T15:52:27.622Z,5.25
2019-05-01T15:54:56.445Z,6.35
2019-05-01T15:57:28.298Z,5.50
2019-05-01T15:59:57.095Z,6.45
2019-05-01T16:02:25.929Z,6.85
2019-05-01T16:04:54.659Z,6.03
2019-05-01T16:07:23.464Z,6.70
2019-05-01T16:09:52.190Z,5.90
2019-05-01T16:12:28.381Z,6.05
2019-05-01T16:14:57.194Z,5.75
2019-05-01T16:17:26.057Z,5.65
2019-05-01T16:19:54.850Z,5.90
2019-05-01T16:22:23.609Z,5.75
2019-05-01T16:24:52.337Z,5.03
2019-05-01T16:27:21.273Z,5.83
2019-05-01T16:29:50.049Z,5.37
2019-05-01T16:32:18.841Z,6.37
2019-05-01T16:34:47.658Z,5.90
2019-05-01T16:37:16.413Z,6.15
2019-05-01T16:39:46.807Z,5.90
2019-05-01T16:42:15.738Z,5.60
2019-05-01T16:44:44.541Z,6.83
2019-05-01T16:47:14.875Z,5.83
2019-05-01T16:49:43.683Z,6.70
2019-05-01T16:52:13.192Z,5.95
2019-05-01T16:54:43.445Z,6.47
2019-05-01T16:57:14.047Z,5.83
2019-05-01T16:59:44.010Z,6.12
2019-05-01T17:02:14.472Z,6.45
2019-05-01T17:04:50.901Z,6.53
2019-05-01T17:07:23.967Z,5.70
2019-05-01T17:09:57.345Z,6.20
2019-05-01T17:12:30.903Z,5.85
2019-05-01T17:14:59.633Z,4.83
2019-05-01T17:17:28.413Z,4.85
2019-05-01T17:19:57.234Z,4.72
2019-05-01T17:22:25.991Z,5.10
2019-05-01T17:24:54.891Z,5.25
2019-05-01T17:27:23.702Z,5.08
2019-05-01T17:29:52.433Z,4.90
2019-05-01T17:32:21.130Z,5.35
2019-05-01T17:34:49.913Z,5.35
2019-05-01T17:37:18.620Z,4.90
2019-05-01T17:39:47.422Z,5.53
2019-05-01T17:42:16.216Z,4.75
2019-05-01T17:44:45.234Z,5.65
2019-05-01T17:47:17.909Z,6.03
2019-05-01T17:49:50.231Z,6.67
2019-05-01T17:52:19.321Z,6.03
2019-05-01T17:54:52.087Z,6.20
2019-05-01T17:57:23.339Z,6.53
2019-05-01T17:59:54.156Z,7.35
2019-05-01T18:02:24.564Z,7.92
2019-05-01T18:05:10.469Z,7.28
2019-05-01T18:07:42.288Z,7.50
2019-05-01T18:10:14.433Z,7.08
2019-05-01T18:12:43.242Z,7.75
2019-05-01T18:15:14.729Z,7.70
2019-05-01T18:17:47.730Z,7.78
2019-05-01T18:20:21.362Z,7.60
2019-05-01T18:23:12.541Z,7.33
2019-05-01T18:25:43.789Z,8.15
2019-05-01T18:28:15.480Z,8.13
2019-05-01T18:30:44.783Z,8.20
2019-05-01T18:33:13.644Z,8.18
2019-05-01T18:35:44.944Z,8.40
2019-05-01T18:38:14.425Z,8.90
2019-05-01T18:40:44.828Z,8.58
2019-05-01T18:43:15.145Z,7.62
2019-05-01T18:45:49.459Z,7.80
2019-05-01T18:48:19.693Z,8.15
2019-05-01T18:50:54.952Z,9.05
2019-05-01T18:53:21.190Z,6.53
2019-05-01T18:55:50.993Z,7.15
2019-05-01T18:58:22.322Z,7.58
2019-05-01T19:00:53.415Z,8.68
2019-05-01T19:03:22.594Z,9.20
2019-05-01T19:05:51.692Z,7.78
2019-05-01T19:08:21.322Z,8.60
2019-05-01T19:13:24.882Z,5.55
2019-05-01T19:15:54.442Z,6.30
2019-05-01T19:18:24.643Z,5.17
2019-05-01T19:20:59.651Z,5.10
2019-05-01T19:23:27.777Z,5.05
2019-05-01T19:25:56.522Z,5.58
2019-05-01T19:28:25.022Z,4.95
2019-05-01T19:30:56.623Z,6.17
2019-05-01T19:33:27.386Z,5.83
2019-05-01T19:35:56.205Z,5.87
2019-05-01T19:38:29.525Z,6.37
2019-05-01T19:40:56.345Z,6.08
2019-05-01T19:45:55.374Z,5.55
2019-05-01T19:48:24.191Z,5.45
2019-05-01T19:50:52.935Z,5.60
2019-05-01T19:53:23.478Z,5.97
2019-05-01T19:55:52.230Z,5.95
2019-05-01T19:58:21.026Z,6.27
2019-05-01T20:00:53.043Z,5.87
2019-05-01T20:03:22.202Z,5.10
2019-05-01T20:05:50.868Z,5.97
2019-05-01T20:08:19.731Z,4.80
2019-05-01T20:10:48.461Z,5.25
2019-05-01T20:13:17.232Z,5.10
2019-05-01T20:15:46.079Z,4.37
2019-05-01T20:18:14.854Z,5.40
2019-05-01T20:20:43.595Z,5.03
2019-05-01T20:23:14.374Z,4.97
2019-05-01T20:25:43.118Z,4.83
2019-05-01T20:28:11.926Z,5.10
2019-05-01T20:30:40.762Z,4.95
2019-05-01T20:33:09.494Z,5.85
2019-05-01T20:35:38.275Z,5.83
2019-05-01T20:38:06.999Z,5.92
2019-05-01T20:40:35.830Z,5.53
2019-05-01T20:43:08.674Z,5.03
2019-05-01T20:45:35.029Z,5.08
2019-05-01T20:48:03.899Z,4.97
2019-05-01T20:50:32.662Z,4.40
2019-05-01T20:53:01.375Z,4.97
2019-05-01T20:55:30.103Z,5.30
2019-05-01T20:58:15.830Z,4.63
2019-05-01T21:00:48.202Z,4.30
2019-05-01T21:03:18.296Z,5.35
2019-05-01T21:05:56.247Z,5.50
2019-05-01T21:08:29.118Z,4.22
2019-05-01T21:11:06.006Z,4.60
2019-05-01T21:13:32.166Z,4.47
2019-05-01T21:16:01.778Z,4.87
2019-05-01T21:18:31.359Z,4.70
2019-05-01T21:21:00.094Z,4.10
2019-05-01T21:23:28.842Z,5.10
2019-05-01T21:26:00.854Z,5.47
2019-05-01T21:28:29.580Z,4.72
2019-05-01T21:30:58.398Z,5.00
2019-05-01T21:33:27.189Z,4.40
2019-05-01T21:35:59.550Z,4.47
2019-05-01T21:38:26.303Z,4.28
2019-05-01T21:40:55.123Z,4.03
2019-05-01T21:43:27.933Z,4.10
2019-05-01T21:45:54.430Z,4.20
2019-05-01T21:48:23.277Z,4.53
2019-05-01T21:50:53.654Z,5.42
2019-05-01T21:53:23.888Z,5.22
2019-05-01T21:55:52.846Z,5.97
2019-05-01T21:58:28.195Z,5.27
2019-05-01T22:00:55.218Z,5.30
2019-05-01T22:03:23.282Z,4.25
2019-05-01T22:05:51.995Z,4.47
2019-05-01T22:08:20.734Z,3.63
2019-05-01T22:10:52.109Z,3.27
2019-05-01T22:13:24.050Z,3.70
2019-05-01T22:15:52.147Z,3.72
2019-05-01T22:18:28.453Z,3.35
2019-05-01T22:21:10.861Z,3.30
2019-05-01T22:23:44.178Z,3.22
2019-05-01T22:26:12.925Z,3.62
2019-05-01T22:28:45.281Z,3.37
2019-05-01T22:31:33.706Z,3.72
2019-05-01T22:34:04.089Z,3.95
2019-05-01T22:36:32.899Z,4.00
2019-05-01T22:39:02.252Z,4.83
2019-05-01T22:41:32.052Z,3.67
2019-05-01T22:44:00.853Z,4.17
2019-05-01T22:46:33.717Z,4.50
2019-05-01T22:49:00.440Z,4.03
2019-05-01T22:51:29.258Z,4.03
2019-05-01T22:53:58.864Z,3.93
2019-05-01T22:58:55.570Z,3.27
2019-05-01T23:01:24.977Z,3.33
2019-05-01T23:03:59.462Z,3.02
2019-05-01T23:06:30.173Z,3.95
2019-05-01T23:08:58.887Z,4.12
2019-05-01T23:11:29.495Z,3.90
2019-05-01T23:13:58.306Z,3.77
2019-05-01T23:16:29.119Z,3.50
2019-05-01T23:19:18.143Z,3.25
2019-05-01T23:21:50.919Z,3.72
2019-05-01T23:24:17.322Z,3.85
2019-05-01T23:26:48.034Z,2.57
2019-05-01T23:29:16.594Z,3.37
2019-05-01T23:31:45.397Z,3.83
2019-05-01T23:34:14.193Z,4.27
2019-05-01T23:36:42.891Z,3.87
2019-05-01T23:39:13.281Z,4.12
2019-05-01T23:41:45.497Z,3.95
2019-05-01T23:44:12.478Z,4.33
2019-05-01T23:46:41.206Z,4.10
2019-05-01T23:49:09.921Z,2.83
2019-05-01T23:51:38.655Z,4.25
2019-05-01T23:54:07.413Z,5.13
2019-05-01T23:56:36.369Z,5.08
2019-05-01T23:59:05.370Z,5.05
